createdAt,value
2023-03-13T00:01:41.146Z,5.88
2023-03-13T00:04:08.873Z,6.43
2023-03-13T00:06:38.794Z,6.05
2023-03-13T00:09:08.490Z,6.05
2023-03-13T00:11:35.968Z,4.55
2023-03-13T00:14:05.175Z,5.10
2023-03-13T00:16:34.695Z,5.20
2023-03-13T00:19:01.973Z,4.50
2023-03-13T00:21:29.979Z,3.95
2023-03-13T00:24:02.224Z,4.53
2023-03-13T00:26:30.587Z,5.18
2023-03-13T00:28:58.276Z,4.88
2023-03-13T00:31:29.067Z,4.60
2023-03-13T00:34:00.520Z,4.18
2023-03-13T00:36:34.158Z,3.97
2023-03-13T00:39:04.290Z,4.30
2023-03-13T00:41:32.987Z,4.20
2023-03-13T00:44:00.779Z,3.63
2023-03-13T00:46:30.216Z,4.15
2023-03-13T00:48:57.937Z,4.20
2023-03-13T00:51:27.337Z,3.80
2023-03-13T00:54:02.937Z,3.75
2023-03-13T00:56:30.516Z,3.58
2023-03-13T00:58:59.841Z,3.40
2023-03-13T01:01:29.567Z,3.22
2023-03-13T01:04:00.194Z,2.63
2023-03-13T01:06:30.431Z,3.17
2023-03-13T01:08:59.553Z,3.22
2023-03-13T01:11:30.636Z,3.67
2023-03-13T01:14:03.486Z,3.35
2023-03-13T01:16:34.065Z,3.22
2023-03-13T01:19:11.820Z,3.00
2023-03-13T01:21:41.241Z,3.28
2023-03-13T01:24:08.976Z,3.00
2023-03-13T01:26:36.436Z,3.17
2023-03-13T01:29:03.731Z,3.10
2023-03-13T01:31:33.913Z,3.05
2023-03-13T01:34:04.525Z,3.33
2023-03-13T01:36:32.107Z,3.08
2023-03-13T01:39:01.235Z,3.03
2023-03-13T01:41:31.295Z,2.85
2023-03-13T01:44:00.178Z,2.78
2023-03-13T01:46:33.135Z,2.20
2023-03-13T01:49:18.921Z,2.67
2023-03-13T01:52:28.152Z,2.78
2023-03-13T01:55:16.374Z,3.00
2023-03-13T01:57:52.093Z,2.58
2023-03-13T02:00:34.701Z,2.28
2023-03-13T02:03:07.477Z,2.95
2023-03-13T02:05:35.707Z,2.88
2023-03-13T02:08:14.332Z,2.53
2023-03-13T02:10:51.999Z,2.70
2023-03-13T02:13:21.142Z,2.90
2023-03-13T02:15:49.138Z,2.70
2023-03-13T02:18:17.561Z,2.88
2023-03-13T02:20:50.762Z,3.05
2023-03-13T02:26:07.798Z,2.33
2023-03-13T02:28:39.236Z,2.53
2023-03-13T02:31:11.363Z,2.35
2023-03-13T02:33:41.214Z,2.45
2023-03-13T02:36:13.569Z,2.25
2023-03-13T02:39:01.547Z,2.45
2023-03-13T02:41:30.460Z,3.00
2023-03-13T02:43:59.466Z,3.20
2023-03-13T02:46:28.216Z,4.38
2023-03-13T02:48:57.359Z,3.80
2023-03-13T02:51:39.332Z,2.88
2023-03-13T02:54:11.602Z,3.92
2023-03-13T02:56:42.934Z,2.80
2023-03-13T02:59:11.261Z,2.80
2023-03-13T03:01:42.014Z,2.63
2023-03-13T03:04:09.581Z,2.08
2023-03-13T03:06:37.285Z,2.40
2023-03-13T03:09:06.122Z,2.88
2023-03-13T03:11:36.109Z,2.65
2023-03-13T03:14:08.682Z,2.72
2023-03-13T03:16:49.298Z,2.25
2023-03-13T03:19:16.763Z,2.58
2023-03-13T03:21:45.072Z,2.15
2023-03-13T03:24:12.500Z,2.35
2023-03-13T03:26:39.867Z,2.30
2023-03-13T03:29:13.454Z,2.70
2023-03-13T03:31:41.390Z,2.20
2023-03-13T03:34:09.732Z,2.88
2023-03-13T03:36:36.960Z,2.70
2023-03-13T03:39:05.476Z,2.78
2023-03-13T03:41:33.270Z,3.10
2023-03-13T03:44:00.812Z,2.03
2023-03-13T03:46:37.041Z,2.30
2023-03-13T03:49:04.495Z,2.05
2023-03-13T03:51:31.743Z,2.65
2023-03-13T03:53:59.273Z,1.95
2023-03-13T03:56:28.825Z,2.25
2023-03-13T03:58:57.794Z,2.65
2023-03-13T04:01:44.491Z,2.20
2023-03-13T04:04:12.641Z,2.50
2023-03-13T04:06:42.558Z,1.90
2023-03-13T04:09:10.605Z,1.63
2023-03-13T04:11:38.784Z,2.03
2023-03-13T04:14:07.967Z,2.20
2023-03-13T04:16:35.580Z,1.98
2023-03-13T04:19:02.881Z,2.30
2023-03-13T04:21:31.080Z,2.10
2023-03-13T04:24:03.033Z,2.40
2023-03-13T04:26:31.303Z,2.20
2023-03-13T04:28:59.938Z,2.45
2023-03-13T04:31:45.885Z,2.35
2023-03-13T04:34:31.742Z,2.28
2023-03-13T04:37:28.028Z,1.83
2023-03-13T04:40:27.976Z,2.15
2023-03-13T04:43:14.239Z,2.10
2023-03-13T04:45:56.045Z,2.20
2023-03-13T04:48:36.823Z,1.95
2023-03-13T04:51:33.592Z,1.63
2023-03-13T04:54:20.217Z,1.83
2023-03-13T04:57:06.393Z,2.28
2023-03-13T04:59:40.923Z,2.20
2023-03-13T05:02:23.541Z,1.77
2023-03-13T05:05:13.912Z,2.35
2023-03-13T05:07:50.654Z,2.28
2023-03-13T05:10:50.512Z,2.20
2023-03-13T05:13:32.114Z,1.95
2023-03-13T05:16:20.087Z,2.00
2023-03-13T05:22:05.668Z,1.88
2023-03-13T05:24:51.496Z,2.00
2023-03-13T05:27:19.090Z,1.95
2023-03-13T05:29:53.928Z,1.63
2023-03-13T05:32:44.456Z,2.05
2023-03-13T05:35:35.500Z,2.15
2023-03-13T05:38:19.808Z,2.15
2023-03-13T05:41:09.203Z,2.63
2023-03-13T05:43:55.277Z,1.73
2023-03-13T05:46:51.292Z,1.90
2023-03-13T05:49:34.038Z,2.25
2023-03-13T05:52:14.602Z,1.60
2023-03-13T05:54:53.221Z,1.90
2023-03-13T05:57:48.134Z,1.92
2023-03-13T06:00:48.849Z,2.13
2023-03-13T06:03:52.318Z,2.00
2023-03-13T06:06:20.340Z,2.50
2023-03-13T06:08:53.721Z,1.70
2023-03-13T06:11:22.926Z,1.67
2023-03-13T06:13:52.376Z,1.90
2023-03-13T06:16:32.282Z,2.40
2023-03-13T06:19:14.509Z,1.60
2023-03-13T06:22:00.145Z,1.92
2023-03-13T06:24:27.385Z,1.65
2023-03-13T06:26:56.173Z,1.50
2023-03-13T06:29:24.489Z,2.50
2023-03-13T06:31:52.216Z,2.10
2023-03-13T06:34:19.589Z,2.83
2023-03-13T06:36:46.854Z,2.85
2023-03-13T06:39:14.224Z,2.55
2023-03-13T06:41:41.526Z,3.55
2023-03-13T06:44:08.749Z,3.95
2023-03-13T06:46:36.037Z,3.85
2023-03-13T06:49:05.960Z,3.13
2023-03-13T06:51:33.406Z,3.15
2023-03-13T06:54:04.132Z,2.88
2023-03-13T06:56:32.822Z,3.20
2023-03-13T06:59:00.326Z,3.47
2023-03-13T07:01:27.869Z,4.22
2023-03-13T07:03:56.395Z,4.60
2023-03-13T07:06:23.701Z,4.80
2023-03-13T07:08:52.031Z,4.45
2023-03-13T07:11:19.729Z,5.30
2023-03-13T07:13:46.953Z,3.60
2023-03-13T07:16:14.684Z,3.53
2023-03-13T07:18:42.736Z,3.38
2023-03-13T07:21:11.436Z,2.92
2023-03-13T07:23:38.641Z,3.65
2023-03-13T07:26:08.729Z,2.97
2023-03-13T07:28:37.798Z,4.00
2023-03-13T07:31:06.451Z,3.28
2023-03-13T07:33:34.506Z,3.72
2023-03-13T07:36:01.996Z,3.45
2023-03-13T07:38:38.606Z,2.92
2023-03-13T07:41:06.574Z,3.30
2023-03-13T07:43:34.263Z,3.10
2023-03-13T07:46:06.636Z,3.78
2023-03-13T07:48:36.560Z,3.22
2023-03-13T07:51:05.763Z,3.75
2023-03-13T07:53:33.603Z,3.90
2023-03-13T07:56:12.894Z,3.55
2023-03-13T08:01:29.811Z,3.97
2023-03-13T08:03:58.905Z,3.90
2023-03-13T08:06:27.721Z,3.78
2023-03-13T08:08:59.131Z,3.53
2023-03-13T08:14:04.187Z,3.95
2023-03-13T08:16:34.905Z,3.50
2023-03-13T08:19:06.136Z,3.30
2023-03-13T08:21:38.338Z,2.80
2023-03-13T08:24:08.324Z,3.17
2023-03-13T08:26:39.094Z,3.35
2023-03-13T08:29:12.422Z,3.17
2023-03-13T08:31:44.326Z,3.28
2023-03-13T08:34:13.393Z,3.53
2023-03-13T08:36:41.820Z,4.05
2023-03-13T08:39:30.633Z,3.60
2023-03-13T08:41:57.957Z,4.13
2023-03-13T08:44:25.703Z,3.55
2023-03-13T08:46:53.268Z,4.20
2023-03-13T08:49:21.166Z,3.60
2023-03-13T08:51:49.438Z,3.85
2023-03-13T08:54:26.150Z,4.25
2023-03-13T08:56:53.823Z,3.97
2023-03-13T08:59:28.218Z,4.47
2023-03-13T09:01:55.629Z,4.22
2023-03-13T09:04:37.776Z,4.43
2023-03-13T09:07:05.354Z,4.60
2023-03-13T09:09:32.832Z,4.28
2023-03-13T09:12:00.162Z,4.22
2023-03-13T09:14:27.772Z,4.25
2023-03-13T09:17:20.248Z,3.72
2023-03-13T09:19:59.407Z,4.10
2023-03-13T09:22:27.144Z,3.67
2023-03-13T09:24:54.624Z,4.15
2023-03-13T09:27:21.981Z,3.33
2023-03-13T09:29:52.499Z,3.85
2023-03-13T09:32:20.709Z,3.40
2023-03-13T09:34:48.120Z,3.47
2023-03-13T09:37:15.564Z,3.33
2023-03-13T09:39:42.868Z,3.70
2023-03-13T09:42:22.488Z,3.00
2023-03-13T09:45:16.463Z,3.63
2023-03-13T09:47:56.893Z,3.00
2023-03-13T09:50:34.990Z,3.65
2023-03-13T09:53:14.971Z,3.03
2023-03-13T09:55:45.493Z,3.13
2023-03-13T09:58:24.898Z,3.60
2023-03-13T10:00:57.591Z,3.30
2023-03-13T10:03:30.647Z,3.10
2023-03-13T10:06:06.062Z,3.00
2023-03-13T10:08:39.293Z,3.15
2023-03-13T10:11:39.020Z,3.00
2023-03-13T10:14:20.643Z,2.45
2023-03-13T10:16:51.610Z,2.95
2023-03-13T10:19:21.842Z,2.90
2023-03-13T10:21:55.991Z,2.80
2023-03-13T10:24:42.589Z,3.08
2023-03-13T10:27:11.117Z,2.58
2023-03-13T10:29:38.869Z,3.20
2023-03-13T10:32:08.380Z,2.88
2023-03-13T10:34:58.646Z,3.20
2023-03-13T10:37:29.377Z,3.40
2023-03-13T10:40:20.590Z,3.37
2023-03-13T10:42:48.197Z,3.45
2023-03-13T10:45:24.697Z,3.58
2023-03-13T10:48:00.600Z,3.65
2023-03-13T10:50:33.015Z,4.30
2023-03-13T10:53:37.284Z,5.05
2023-03-13T10:56:12.460Z,4.15
2023-03-13T10:58:54.199Z,4.38
2023-03-13T11:01:24.926Z,4.90
2023-03-13T11:03:57.212Z,4.45
2023-03-13T11:06:47.976Z,4.28
2023-03-13T11:09:17.691Z,4.82
2023-03-13T11:12:15.260Z,4.07
2023-03-13T11:14:45.359Z,4.18
2023-03-13T11:17:34.293Z,4.60
2023-03-13T11:20:20.571Z,3.78
2023-03-13T11:23:37.166Z,4.47
2023-03-13T11:26:07.211Z,4.47
2023-03-13T11:28:58.291Z,4.15
2023-03-13T11:31:34.640Z,3.87
2023-03-13T11:34:41.114Z,4.45
2023-03-13T11:38:11.928Z,4.43
2023-03-13T11:40:49.108Z,3.88
2023-03-13T11:43:25.309Z,4.55
2023-03-13T11:46:09.421Z,3.05
2023-03-13T11:48:57.588Z,3.70
2023-03-13T11:51:55.086Z,3.55
2023-03-13T11:54:53.553Z,3.28
2023-03-13T11:57:38.253Z,3.45
2023-03-13T12:00:27.102Z,3.80
2023-03-13T12:03:16.183Z,4.38
2023-03-13T12:05:53.213Z,3.85
2023-03-13T12:08:42.577Z,4.43
2023-03-13T12:11:29.425Z,4.20
2023-03-13T12:14:21.809Z,3.75
2023-03-13T12:16:55.377Z,3.60
2023-03-13T12:19:49.890Z,3.58
2023-03-13T12:22:34.487Z,4.10
2023-03-13T12:25:33.021Z,3.40
2023-03-13T12:28:19.374Z,4.70
2023-03-13T12:30:53.137Z,3.47
2023-03-13T12:33:26.872Z,3.45
2023-03-13T12:36:20.714Z,3.80
2023-03-13T12:38:58.804Z,3.53
2023-03-13T12:41:36.365Z,3.50
2023-03-13T12:44:09.243Z,3.45
2023-03-13T12:46:48.175Z,3.30
2023-03-13T12:49:37.415Z,3.45
2023-03-13T12:52:38.505Z,3.10
2023-03-13T12:55:29.524Z,3.08
2023-03-13T12:58:30.919Z,2.50
2023-03-13T13:01:04.293Z,2.80
2023-03-13T13:03:36.491Z,2.88
2023-03-13T13:06:13.556Z,2.92
2023-03-13T13:08:46.856Z,2.83
2023-03-13T13:11:37.944Z,2.70
2023-03-13T13:14:28.042Z,3.10
2023-03-13T13:17:16.205Z,2.67
2023-03-13T13:19:44.567Z,2.80
2023-03-13T13:22:39.721Z,3.05
2023-03-13T13:25:35.962Z,2.75
2023-03-13T13:28:21.880Z,2.78
2023-03-13T13:30:50.709Z,2.90
2023-03-13T13:33:28.148Z,3.17
2023-03-13T13:36:10.869Z,2.95
2023-03-13T13:38:42.308Z,2.88
2023-03-13T13:44:21.250Z,2.58
2023-03-13T13:46:48.929Z,2.70
2023-03-13T13:50:08.399Z,2.45
2023-03-13T13:52:38.407Z,2.30
2023-03-13T13:55:42.232Z,2.40
2023-03-13T13:58:24.761Z,2.22
2023-03-13T14:01:00.365Z,2.28
2023-03-13T14:03:36.052Z,2.13
2023-03-13T14:06:17.170Z,2.30
2023-03-13T14:08:48.945Z,2.42
2023-03-13T14:11:22.606Z,2.20
2023-03-13T14:14:09.391Z,1.83
2023-03-13T14:16:38.440Z,2.22
2023-03-13T14:19:06.044Z,2.20
2023-03-13T14:21:34.897Z,2.10
2023-03-13T14:24:02.238Z,1.85
2023-03-13T14:26:30.482Z,1.77
2023-03-13T14:29:08.115Z,2.03
2023-03-13T14:31:38.673Z,1.80
2023-03-13T14:34:12.187Z,1.92
2023-03-13T14:37:11.188Z,1.70
2023-03-13T14:39:46.076Z,1.48
2023-03-13T14:42:15.864Z,1.60
2023-03-13T14:44:46.786Z,1.58
2023-03-13T14:47:34.480Z,1.92
2023-03-13T14:50:04.803Z,1.98
2023-03-13T14:52:34.569Z,1.98
2023-03-13T14:55:08.053Z,1.67
2023-03-13T14:57:36.446Z,1.90
2023-03-13T15:00:34.042Z,1.40
2023-03-13T15:03:22.694Z,1.90
2023-03-13T15:05:51.581Z,1.70
2023-03-13T15:08:21.849Z,1.80
2023-03-13T15:10:50.131Z,1.80
2023-03-13T15:13:24.431Z,2.13
2023-03-13T15:15:53.171Z,2.20
2023-03-13T15:18:29.885Z,1.67
2023-03-13T15:21:21.166Z,2.10
2023-03-13T15:24:03.802Z,1.88
2023-03-13T15:26:31.579Z,2.40
2023-03-13T15:28:58.921Z,2.30
2023-03-13T15:31:29.602Z,2.03
2023-03-13T15:34:01.770Z,2.13
2023-03-13T15:36:33.021Z,1.88
2023-03-13T15:39:00.993Z,2.17
2023-03-13T15:41:28.465Z,1.80
2023-03-13T15:43:57.134Z,1.85
2023-03-13T15:46:27.000Z,1.90
2023-03-13T15:48:54.800Z,1.95
2023-03-13T15:51:22.336Z,1.80
2023-03-13T15:53:57.211Z,1.85
2023-03-13T15:56:24.612Z,2.00
2023-03-13T15:58:52.172Z,1.52
2023-03-13T16:01:19.870Z,1.83
2023-03-13T16:03:47.598Z,1.88
2023-03-13T16:06:18.151Z,1.90
2023-03-13T16:08:46.167Z,1.50
2023-03-13T16:11:16.012Z,1.42
2023-03-13T16:13:44.123Z,1.60
2023-03-13T16:16:37.559Z,2.17
2023-03-13T16:19:05.248Z,1.90
2023-03-13T16:21:34.908Z,1.75
2023-03-13T16:24:02.756Z,1.50
2023-03-13T16:26:32.475Z,1.73
2023-03-13T16:29:00.339Z,1.35
2023-03-13T16:31:31.033Z,1.70
2023-03-13T16:33:59.997Z,1.63
2023-03-13T16:36:31.429Z,1.42
2023-03-13T16:39:05.874Z,1.30
2023-03-13T16:41:33.449Z,1.98
2023-03-13T16:44:02.835Z,1.70
2023-03-13T16:46:37.872Z,1.40
2023-03-13T16:49:07.513Z,2.10
2023-03-13T16:51:34.853Z,1.90
2023-03-13T16:54:03.840Z,2.50
2023-03-13T16:56:34.361Z,2.60
2023-03-13T16:59:04.317Z,2.08
2023-03-13T17:01:32.211Z,3.00
2023-03-13T17:04:00.303Z,2.80
2023-03-13T17:06:39.043Z,2.13
2023-03-13T17:09:26.947Z,2.30
2023-03-13T17:11:54.730Z,2.03
2023-03-13T17:14:23.325Z,2.30
2023-03-13T17:16:50.798Z,2.17
2023-03-13T17:19:20.453Z,2.42
2023-03-13T17:21:49.744Z,2.40
2023-03-13T17:24:17.301Z,2.05
2023-03-13T17:26:45.334Z,2.63
2023-03-13T17:29:23.896Z,2.40
2023-03-13T17:31:51.738Z,1.90
2023-03-13T17:34:21.625Z,2.72
2023-03-13T17:36:49.574Z,2.00
2023-03-13T17:39:17.267Z,2.20
2023-03-13T17:41:47.156Z,1.90
2023-03-13T17:44:15.472Z,2.38
2023-03-13T17:46:46.805Z,2.50
2023-03-13T17:49:17.851Z,2.90
2023-03-13T17:51:46.842Z,2.83
2023-03-13T17:54:16.035Z,3.83
2023-03-13T17:56:46.859Z,4.00
2023-03-13T17:59:18.472Z,4.05
2023-03-13T18:01:48.128Z,3.17
2023-03-13T18:04:16.497Z,2.63
2023-03-13T18:06:46.968Z,3.17
2023-03-13T18:09:22.233Z,2.45
2023-03-13T18:11:50.938Z,2.25
2023-03-13T18:14:19.246Z,1.80
2023-03-13T18:16:49.355Z,1.70
2023-03-13T18:19:22.792Z,1.98
2023-03-13T18:21:53.272Z,1.80
2023-03-13T18:24:21.994Z,1.90
2023-03-13T18:26:51.453Z,1.90
2023-03-13T18:29:29.414Z,2.50
2023-03-13T18:32:00.955Z,2.50
2023-03-13T18:34:29.777Z,1.98
2023-03-13T18:37:05.126Z,2.53
2023-03-13T18:39:34.442Z,3.05
2023-03-13T18:42:03.089Z,3.80
2023-03-13T18:44:33.758Z,3.85
2023-03-13T18:47:03.443Z,4.13
2023-03-13T18:49:32.610Z,4.10
2023-03-13T18:52:05.315Z,13.07
2023-03-13T18:54:33.975Z,23.83
2023-03-13T18:57:02.794Z,23.38
2023-03-13T18:59:31.771Z,11.77
2023-03-13T19:02:00.663Z,12.48
2023-03-13T19:04:29.337Z,12.77
2023-03-13T19:07:03.085Z,9.23
2023-03-13T19:09:43.257Z,9.43
2023-03-13T19:12:13.322Z,10.65
2023-03-13T19:14:42.330Z,10.05
2023-03-13T19:17:24.049Z,9.27
2023-03-13T19:19:57.711Z,7.47
2023-03-13T19:22:26.499Z,8.23
2023-03-13T19:24:54.933Z,8.75
2023-03-13T19:27:25.109Z,5.53
2023-03-13T19:29:53.805Z,4.03
2023-03-13T19:32:24.323Z,5.65
2023-03-13T19:34:52.764Z,11.23
2023-03-13T19:37:23.602Z,12.85
2023-03-13T19:39:52.097Z,11.00
2023-03-13T19:42:22.675Z,7.40
2023-03-13T19:44:51.134Z,6.72
2023-03-13T19:47:19.825Z,6.25
2023-03-13T19:49:50.693Z,6.20
2023-03-13T19:52:21.106Z,6.35
2023-03-13T19:55:18.304Z,6.20
2023-03-13T19:57:47.188Z,6.88
2023-03-13T20:00:25.997Z,7.30
2023-03-13T20:02:55.466Z,7.05
2023-03-13T20:05:24.300Z,6.63
2023-03-13T20:07:56.590Z,7.70
2023-03-13T20:10:26.077Z,7.72
2023-03-13T20:12:55.167Z,7.03
2023-03-13T20:15:23.436Z,6.53
2023-03-13T20:17:52.126Z,6.13
2023-03-13T20:20:23.088Z,6.05
2023-03-13T20:22:54.803Z,5.82
2023-03-13T20:25:25.142Z,5.93
2023-03-13T20:27:53.638Z,5.45
2023-03-13T20:30:23.163Z,5.78
2023-03-13T20:32:59.301Z,5.47
2023-03-13T20:35:29.935Z,5.55
2023-03-13T20:38:00.376Z,5.15
2023-03-13T20:40:29.209Z,4.85
2023-03-13T20:42:59.042Z,5.32
2023-03-13T20:45:31.928Z,4.90
2023-03-13T20:47:59.861Z,4.70
2023-03-13T20:50:28.126Z,4.32
2023-03-13T20:52:56.847Z,4.45
2023-03-13T20:55:25.391Z,4.63
2023-03-13T20:57:53.819Z,4.70
2023-03-13T21:00:23.959Z,5.03
2023-03-13T21:02:55.339Z,5.40
2023-03-13T21:07:52.308Z,5.00
2023-03-13T21:10:23.584Z,4.57
2023-03-13T21:12:51.535Z,4.60
2023-03-13T21:15:19.531Z,4.75
2023-03-13T21:17:47.564Z,4.97
2023-03-13T21:20:18.847Z,4.05
2023-03-13T21:22:46.598Z,4.32
2023-03-13T21:25:15.062Z,4.03
2023-03-13T21:27:43.962Z,4.00
2023-03-13T21:30:18.066Z,4.13
2023-03-13T21:32:46.411Z,3.85
2023-03-13T21:35:15.720Z,3.75
2023-03-13T21:37:43.882Z,3.13
2023-03-13T21:40:12.339Z,4.22
2023-03-13T21:42:40.264Z,5.18
2023-03-13T21:45:08.671Z,4.85
2023-03-13T21:47:38.581Z,5.60
2023-03-13T21:50:08.187Z,4.38
2023-03-13T21:52:42.538Z,5.30
2023-03-13T21:55:13.373Z,5.25
2023-03-13T21:57:41.315Z,4.68
2023-03-13T22:00:09.513Z,5.35
2023-03-13T22:02:42.556Z,4.60
2023-03-13T22:05:12.639Z,4.57
2023-03-13T22:07:43.195Z,4.85
2023-03-13T22:10:11.363Z,5.28
2023-03-13T22:12:38.998Z,4.40
2023-03-13T22:15:07.236Z,4.25
2023-03-13T22:17:35.168Z,4.22
2023-03-13T22:20:02.595Z,4.90
2023-03-13T22:22:30.466Z,4.78
2023-03-13T22:24:57.807Z,4.72
2023-03-13T22:27:25.720Z,4.50
2023-03-13T22:29:53.500Z,4.85
2023-03-13T22:32:21.183Z,4.85
2023-03-13T22:34:49.297Z,4.38
2023-03-13T22:37:16.886Z,4.18
2023-03-13T22:39:44.410Z,4.65
2023-03-13T22:42:11.770Z,4.40
2023-03-13T22:44:45.073Z,4.15
2023-03-13T22:47:12.520Z,4.60
2023-03-13T22:49:40.628Z,4.90
2023-03-13T22:52:07.930Z,4.57
2023-03-13T22:54:36.608Z,5.05
2023-03-13T22:57:04.656Z,4.82
2023-03-13T22:59:32.325Z,5.15
2023-03-13T23:01:59.993Z,5.85
2023-03-13T23:04:27.261Z,5.28
2023-03-13T23:06:57.665Z,5.75
2023-03-13T23:09:24.945Z,5.30
2023-03-13T23:11:52.189Z,5.03
2023-03-13T23:14:19.629Z,5.97
2023-03-13T23:16:51.751Z,5.57
2023-03-13T23:19:18.970Z,4.57
2023-03-13T23:22:13.164Z,6.68
2023-03-13T23:24:40.355Z,6.75
2023-03-13T23:27:07.557Z,7.75
2023-03-13T23:29:36.058Z,6.55
2023-03-13T23:32:03.291Z,6.07
2023-03-13T23:34:30.668Z,5.25
2023-03-13T23:36:58.273Z,4.65
2023-03-13T23:39:25.748Z,4.60
2023-03-13T23:41:53.077Z,4.32
2023-03-13T23:44:20.375Z,4.45
2023-03-13T23:46:47.575Z,3.80
2023-03-13T23:49:17.009Z,3.42
2023-03-13T23:51:44.262Z,3.35
2023-03-13T23:54:11.467Z,2.95
2023-03-13T23:56:38.665Z,2.90
2023-03-13T23:59:06.042Z,2.38
